sensor_id;sensor_type;location;lat;lon;timestamp;temperature;humidity
3488;DHT22;38546;48.170;11.724;2023-07-13T00:01:24;18.70;99.90
3488;DHT22;38546;48.170;11.724;2023-07-13T00:04:14;18.60;99.90
3488;DHT22;38546;48.170;11.724;2023-07-13T00:07:03;18.60;99.90
3488;DHT22;38546;48.170;11.724;2023-07-13T00:09:53;18.60;99.90
3488;DHT22;38546;48.170;11.724;2023-07-13T00:12:43;18.60;99.90
3488;DHT22;38546;48.170;11.724;2023-07-13T00:15:33;18.60;99.90
3488;DHT22;38546;48.170;11.724;2023-07-13T00:18:24;18.60;99.90
3488;DHT22;38546;48.170;11.724;2023-07-13T00:21:14;18.60;99.90
3488;DHT22;38546;48.170;11.724;2023-07-13T00:24:05;18.60;99.90
3488;DHT22;38546;48.170;11.724;2023-07-13T00:26:55;18.50;99.90
3488;DHT22;38546;48.170;11.724;2023-07-13T00:29:44;18.60;99.90
3488;DHT22;38546;48.170;11.724;2023-07-13T00:32:34;18.60;99.90
3488;DHT22;38546;48.170;11.724;2023-07-13T00:35:25;18.60;99.90
3488;DHT22;38546;48.170;11.724;2023-07-13T00:38:15;18.60;99.90
3488;DHT22;38546;48.170;11.724;2023-07-13T00:41:05;18.60;99.90
3488;DHT22;38546;48.170;11.724;2023-07-13T00:43:54;18.60;99.90
3488;DHT22;38546;48.170;11.724;2023-07-13T00:46:44;18.70;99.90
3488;DHT22;38546;48.170;11.724;2023-07-13T00:49:35;18.60;99.90
3488;DHT22;38546;48.170;11.724;2023-07-13T00:52:25;18.60;99.90
3488;DHT22;38546;48.170;11.724;2023-07-13T00:55:16;18.60;99.90
3488;DHT22;38546;48.170;11.724;2023-07-13T00:58:06;18.60;99.90
3488;DHT22;38546;48.170;11.724;2023-07-13T01:00:55;18.60;99.90
3488;DHT22;38546;48.170;11.724;2023-07-13T01:03:45;18.60;99.90
3488;DHT22;38546;48.170;11.724;2023-07-13T01:06:37;18.50;99.90
3488;DHT22;38546;48.170;11.724;2023-07-13T01:09:27;18.60;99.90
3488;DHT22;38546;48.170;11.724;2023-07-13T01:12:16;18.60;99.90
3488;DHT22;38546;48.170;11.724;2023-07-13T01:15:53;18.60;99.90
3488;DHT22;38546;48.170;11.724;2023-07-13T01:18:45;18.50;99.90
3488;DHT22;38546;48.170;11.724;2023-07-13T01:21:34;18.40;99.90
3488;DHT22;38546;48.170;11.724;2023-07-13T01:24:23;18.40;99.90
3488;DHT22;38546;48.170;11.724;2023-07-13T01:27:15;18.40;99.90
3488;DHT22;38546;48.170;11.724;2023-07-13T01:30:06;18.40;99.90
3488;DHT22;38546;48.170;11.724;2023-07-13T01:32:55;18.40;99.90
3488;DHT22;38546;48.170;11.724;2023-07-13T01:35:46;18.40;99.90
3488;DHT22;38546;48.170;11.724;2023-07-13T01:38:36;18.40;99.90
3488;DHT22;38546;48.170;11.724;2023-07-13T01:41:26;18.30;99.90
3488;DHT22;38546;48.170;11.724;2023-07-13T01:44:15;18.40;99.90
3488;DHT22;38546;48.170;11.724;2023-07-13T01:47:05;18.40;99.90
3488;DHT22;38546;48.170;11.724;2023-07-13T01:49:55;18.40;99.90
3488;DHT22;38546;48.170;11.724;2023-07-13T01:52:44;18.30;99.90
3488;DHT22;38546;48.170;11.724;2023-07-13T01:55:34;18.40;99.90
3488;DHT22;38546;48.170;11.724;2023-07-13T01:58:24;18.40;99.90
3488;DHT22;38546;48.170;11.724;2023-07-13T02:01:13;18.40;99.90
3488;DHT22;38546;48.170;11.724;2023-07-13T02:04:03;18.50;99.90
3488;DHT22;38546;48.170;11.724;2023-07-13T02:06:53;18.40;99.90
3488;DHT22;38546;48.170;11.724;2023-07-13T02:09:44;18.40;99.90
3488;DHT22;38546;48.170;11.724;2023-07-13T02:12:34;18.40;99.90
3488;DHT22;38546;48.170;11.724;2023-07-13T02:15:24;18.40;99.90
3488;DHT22;38546;48.170;11.724;2023-07-13T02:18:13;18.40;99.90
3488;DHT22;38546;48.170;11.724;2023-07-13T02:21:06;18.40;99.90
3488;DHT22;38546;48.170;11.724;2023-07-13T02:23:55;18.40;99.90
3488;DHT22;38546;48.170;11.724;2023-07-13T02:26:46;18.30;99.90
3488;DHT22;38546;48.170;11.724;2023-07-13T02:29:35;18.40;99.90
3488;DHT22;38546;48.170;11.724;2023-07-13T02:32:25;18.40;99.90
3488;DHT22;38546;48.170;11.724;2023-07-13T02:35:16;18.40;99.90
3488;DHT22;38546;48.170;11.724;2023-07-13T02:38:06;18.40;99.90
3488;DHT22;38546;48.170;11.724;2023-07-13T02:40:56;18.40;99.90
3488;DHT22;38546;48.170;11.724;2023-07-13T02:43:45;18.50;99.90
3488;DHT22;38546;48.170;11.724;2023-07-13T02:46:36;18.40;99.90
3488;DHT22;38546;48.170;11.724;2023-07-13T02:49:26;18.50;99.90
3488;DHT22;38546;48.170;11.724;2023-07-13T02:52:15;18.50;99.90
3488;DHT22;38546;48.170;11.724;2023-07-13T02:55:05;18.50;99.90
3488;DHT22;38546;48.170;11.724;2023-07-13T02:57:55;18.60;99.90
3488;DHT22;38546;48.170;11.724;2023-07-13T03:00:47;18.60;99.90
3488;DHT22;38546;48.170;11.724;2023-07-13T03:03:37;18.60;99.90
3488;DHT22;38546;48.170;11.724;2023-07-13T03:06:27;18.60;99.90
3488;DHT22;38546;48.170;11.724;2023-07-13T03:09:19;18.50;99.90
3488;DHT22;38546;48.170;11.724;2023-07-13T03:12:08;18.50;99.90
3488;DHT22;38546;48.170;11.724;2023-07-13T03:14:57;18.40;99.90
3488;DHT22;38546;48.170;11.724;2023-07-13T03:17:47;18.40;99.90
3488;DHT22;38546;48.170;11.724;2023-07-13T03:20:36;18.30;99.90
3488;DHT22;38546;48.170;11.724;2023-07-13T03:23:26;18.30;99.90
3488;DHT22;38546;48.170;11.724;2023-07-13T03:26:19;18.30;99.90
3488;DHT22;38546;48.170;11.724;2023-07-13T03:29:09;18.10;99.90
3488;DHT22;38546;48.170;11.724;2023-07-13T03:31:58;18.20;99.90
3488;DHT22;38546;48.170;11.724;2023-07-13T03:34:48;18.10;99.90
3488;DHT22;38546;48.170;11.724;2023-07-13T03:37:37;18.00;99.90
3488;DHT22;38546;48.170;11.724;2023-07-13T03:40:31;18.00;99.90
3488;DHT22;38546;48.170;11.724;2023-07-13T03:43:21;17.80;99.90
3488;DHT22;38546;48.170;11.724;2023-07-13T03:46:11;17.80;99.90
3488;DHT22;38546;48.170;11.724;2023-07-13T03:49:01;17.80;99.90
3488;DHT22;38546;48.170;11.724;2023-07-13T03:51:54;17.70;99.90
3488;DHT22;38546;48.170;11.724;2023-07-13T03:54:43;17.60;99.90
3488;DHT22;38546;48.170;11.724;2023-07-13T03:57:32;17.70;99.90
3488;DHT22;38546;48.170;11.724;2023-07-13T04:00:25;17.60;99.90
3488;DHT22;38546;48.170;11.724;2023-07-13T04:03:15;17.60;99.90
3488;DHT22;38546;48.170;11.724;2023-07-13T04:06:16;17.70;99.90
3488;DHT22;38546;48.170;11.724;2023-07-13T04:09:16;17.80;99.90
3488;DHT22;38546;48.170;11.724;2023-07-13T04:12:06;17.70;99.90
3488;DHT22;38546;48.170;11.724;2023-07-13T04:14:55;17.60;99.90
3488;DHT22;38546;48.170;11.724;2023-07-13T04:17:45;17.60;99.90
3488;DHT22;38546;48.170;11.724;2023-07-13T04:20:34;17.60;99.90
3488;DHT22;38546;48.170;11.724;2023-07-13T04:23:23;17.60;99.90
3488;DHT22;38546;48.170;11.724;2023-07-13T04:26:13;17.50;99.90
3488;DHT22;38546;48.170;11.724;2023-07-13T04:29:02;17.60;99.90
3488;DHT22;38546;48.170;11.724;2023-07-13T04:31:53;17.60;99.90
3488;DHT22;38546;48.170;11.724;2023-07-13T04:34:42;17.60;99.90
3488;DHT22;38546;48.170;11.724;2023-07-13T04:37:31;17.60;99.90
3488;DHT22;38546;48.170;11.724;2023-07-13T04:40:20;17.50;99.90
3488;DHT22;38546;48.170;11.724;2023-07-13T04:43:10;17.60;99.90
3488;DHT22;38546;48.170;11.724;2023-07-13T04:46:09;17.60;99.90
3488;DHT22;38546;48.170;11.724;2023-07-13T04:49:00;17.70;99.90
3488;DHT22;38546;48.170;11.724;2023-07-13T04:51:49;17.60;99.90
3488;DHT22;38546;48.170;11.724;2023-07-13T04:54:39;17.70;99.90
3488;DHT22;38546;48.170;11.724;2023-07-13T04:57:28;17.70;99.90
3488;DHT22;38546;48.170;11.724;2023-07-13T05:00:18;17.60;99.90
3488;DHT22;38546;48.170;11.724;2023-07-13T05:03:09;17.60;99.90
3488;DHT22;38546;48.170;11.724;2023-07-13T05:06:03;17.70;99.90
3488;DHT22;38546;48.170;11.724;2023-07-13T05:08:54;17.80;99.90
3488;DHT22;38546;48.170;11.724;2023-07-13T05:11:44;17.80;99.90
3488;DHT22;38546;48.170;11.724;2023-07-13T05:14:33;17.80;99.90
3488;DHT22;38546;48.170;11.724;2023-07-13T05:17:22;17.80;99.90
3488;DHT22;38546;48.170;11.724;2023-07-13T05:20:12;17.90;99.90
3488;DHT22;38546;48.170;11.724;2023-07-13T05:23:01;17.90;99.90
3488;DHT22;38546;48.170;11.724;2023-07-13T05:25:51;17.80;99.90
3488;DHT22;38546;48.170;11.724;2023-07-13T05:28:40;17.80;99.90
3488;DHT22;38546;48.170;11.724;2023-07-13T05:31:29;17.80;99.90
3488;DHT22;38546;48.170;11.724;2023-07-13T05:34:18;17.90;99.90
3488;DHT22;38546;48.170;11.724;2023-07-13T05:37:08;17.90;99.90
3488;DHT22;38546;48.170;11.724;2023-07-13T05:39:57;17.90;99.90
3488;DHT22;38546;48.170;11.724;2023-07-13T05:42:47;17.90;99.90
3488;DHT22;38546;48.170;11.724;2023-07-13T05:45:36;17.90;99.90
3488;DHT22;38546;48.170;11.724;2023-07-13T05:48:25;17.80;99.90
3488;DHT22;38546;48.170;11.724;2023-07-13T05:51:14;17.90;99.90
3488;DHT22;38546;48.170;11.724;2023-07-13T05:54:03;17.80;99.90
3488;DHT22;38546;48.170;11.724;2023-07-13T05:56:53;17.80;99.90
3488;DHT22;38546;48.170;11.724;2023-07-13T05:59:42;17.90;99.90
3488;DHT22;38546;48.170;11.724;2023-07-13T06:02:32;18.00;99.90
3488;DHT22;38546;48.170;11.724;2023-07-13T06:05:21;17.90;99.90
3488;DHT22;38546;48.170;11.724;2023-07-13T06:08:10;17.90;99.90
3488;DHT22;38546;48.170;11.724;2023-07-13T06:11:04;18.00;99.90
3488;DHT22;38546;48.170;11.724;2023-07-13T06:13:55;18.10;99.90
3488;DHT22;38546;48.170;11.724;2023-07-13T06:16:45;18.00;99.90
3488;DHT22;38546;48.170;11.724;2023-07-13T06:19:34;18.10;99.90
3488;DHT22;38546;48.170;11.724;2023-07-13T06:22:24;18.20;99.90
3488;DHT22;38546;48.170;11.724;2023-07-13T06:25:13;18.20;99.90
3488;DHT22;38546;48.170;11.724;2023-07-13T06:28:03;18.20;99.90
3488;DHT22;38546;48.170;11.724;2023-07-13T06:30:52;18.30;99.90
3488;DHT22;38546;48.170;11.724;2023-07-13T06:33:41;18.30;99.90
3488;DHT22;38546;48.170;11.724;2023-07-13T06:36:30;18.50;99.90
3488;DHT22;38546;48.170;11.724;2023-07-13T06:39:19;18.70;99.90
3488;DHT22;38546;48.170;11.724;2023-07-13T06:42:08;18.90;99.90
3488;DHT22;38546;48.170;11.724;2023-07-13T06:44:57;19.20;99.90
3488;DHT22;38546;48.170;11.724;2023-07-13T06:47:46;19.30;99.90
3488;DHT22;38546;48.170;11.724;2023-07-13T06:50:35;19.40;99.90
3488;DHT22;38546;48.170;11.724;2023-07-13T06:53:24;19.50;99.90
3488;DHT22;38546;48.170;11.724;2023-07-13T06:56:13;19.90;99.90
3488;DHT22;38546;48.170;11.724;2023-07-13T06:59:02;19.70;99.90
3488;DHT22;38546;48.170;11.724;2023-07-13T07:01:51;19.40;99.90
3488;DHT22;38546;48.170;11.724;2023-07-13T07:04:40;19.40;99.90
3488;DHT22;38546;48.170;11.724;2023-07-13T07:07:29;19.30;99.90
3488;DHT22;38546;48.170;11.724;2023-07-13T07:10:19;19.40;99.90
3488;DHT22;38546;48.170;11.724;2023-07-13T07:13:08;19.40;99.90
3488;DHT22;38546;48.170;11.724;2023-07-13T07:15:58;19.50;99.90
3488;DHT22;38546;48.170;11.724;2023-07-13T07:18:49;19.70;99.90
3488;DHT22;38546;48.170;11.724;2023-07-13T07:21:38;19.70;99.90
3488;DHT22;38546;48.170;11.724;2023-07-13T07:24:27;19.70;99.90
3488;DHT22;38546;48.170;11.724;2023-07-13T07:27:15;19.90;99.90
3488;DHT22;38546;48.170;11.724;2023-07-13T07:30:05;19.90;99.90
3488;DHT22;38546;48.170;11.724;2023-07-13T07:32:55;20.10;99.90
3488;DHT22;38546;48.170;11.724;2023-07-13T07:35:44;20.20;99.90
3488;DHT22;38546;48.170;11.724;2023-07-13T07:38:33;20.50;99.90
3488;DHT22;38546;48.170;11.724;2023-07-13T07:41:23;20.50;99.90
3488;DHT22;38546;48.170;11.724;2023-07-13T07:44:11;20.40;99.90
3488;DHT22;38546;48.170;11.724;2023-07-13T07:47:01;20.30;99.90
3488;DHT22;38546;48.170;11.724;2023-07-13T07:49:50;20.40;99.90
3488;DHT22;38546;48.170;11.724;2023-07-13T07:52:39;20.10;99.90
3488;DHT22;38546;48.170;11.724;2023-07-13T07:55:29;20.10;99.90
3488;DHT22;38546;48.170;11.724;2023-07-13T07:58:18;20.10;99.90
3488;DHT22;38546;48.170;11.724;2023-07-13T08:01:06;20.20;99.90
3488;DHT22;38546;48.170;11.724;2023-07-13T08:03:56;20.10;99.90
3488;DHT22;38546;48.170;11.724;2023-07-13T08:06:46;20.00;99.90
3488;DHT22;38546;48.170;11.724;2023-07-13T08:09:35;19.90;99.90
3488;DHT22;38546;48.170;11.724;2023-07-13T08:12:24;19.70;99.90
3488;DHT22;38546;48.170;11.724;2023-07-13T08:15:15;19.50;99.90
3488;DHT22;38546;48.170;11.724;2023-07-13T08:18:05;19.40;99.90
3488;DHT22;38546;48.170;11.724;2023-07-13T08:20:57;19.20;99.90
3488;DHT22;38546;48.170;11.724;2023-07-13T08:23:47;19.10;99.90
3488;DHT22;38546;48.170;11.724;2023-07-13T08:26:36;19.00;99.90
3488;DHT22;38546;48.170;11.724;2023-07-13T08:29:25;19.10;99.90
3488;DHT22;38546;48.170;11.724;2023-07-13T08:32:15;19.30;99.90
3488;DHT22;38546;48.170;11.724;2023-07-13T08:35:05;19.20;99.90
3488;DHT22;38546;48.170;11.724;2023-07-13T08:37:55;19.40;99.90
3488;DHT22;38546;48.170;11.724;2023-07-13T08:40:50;19.30;99.90
3488;DHT22;38546;48.170;11.724;2023-07-13T08:43:44;19.40;99.90
3488;DHT22;38546;48.170;11.724;2023-07-13T08:46:40;19.30;99.90
3488;DHT22;38546;48.170;11.724;2023-07-13T08:49:30;19.40;99.90
3488;DHT22;38546;48.170;11.724;2023-07-13T08:52:36;19.40;99.90
3488;DHT22;38546;48.170;11.724;2023-07-13T08:55:30;19.50;99.90
3488;DHT22;38546;48.170;11.724;2023-07-13T08:58:22;19.40;99.90
3488;DHT22;38546;48.170;11.724;2023-07-13T09:06:07;19.40;99.90
3488;DHT22;38546;48.170;11.724;2023-07-13T09:09:06;19.50;99.90
3488;DHT22;38546;48.170;11.724;2023-07-13T09:12:26;19.60;99.90
3488;DHT22;38546;48.170;11.724;2023-07-13T09:15:31;19.70;99.90
3488;DHT22;38546;48.170;11.724;2023-07-13T09:18:47;19.80;99.90
3488;DHT22;38546;48.170;11.724;2023-07-13T09:21:41;19.80;99.90
3488;DHT22;38546;48.170;11.724;2023-07-13T09:26:18;19.70;99.90
3488;DHT22;38546;48.170;11.724;2023-07-13T09:29:33;19.70;99.90
3488;DHT22;38546;48.170;11.724;2023-07-13T09:32:27;20.00;99.90
3488;DHT22;38546;48.170;11.724;2023-07-13T09:35:26;20.00;99.90
3488;DHT22;38546;48.170;11.724;2023-07-13T09:38:19;20.10;99.90
3488;DHT22;38546;48.170;11.724;2023-07-13T09:45:29;20.40;99.90
3488;DHT22;38546;48.170;11.724;2023-07-13T09:48:19;20.60;99.90
3488;DHT22;38546;48.170;11.724;2023-07-13T09:51:13;20.70;99.90
3488;DHT22;38546;48.170;11.724;2023-07-13T09:54:04;20.60;99.90
3488;DHT22;38546;48.170;11.724;2023-07-13T09:56:56;20.70;99.90
3488;DHT22;38546;48.170;11.724;2023-07-13T09:59:48;20.80;99.90
3488;DHT22;38546;48.170;11.724;2023-07-13T10:02:39;20.90;99.90
3488;DHT22;38546;48.170;11.724;2023-07-13T10:05:38;21.00;99.90
3488;DHT22;38546;48.170;11.724;2023-07-13T10:08:31;21.10;99.90
3488;DHT22;38546;48.170;11.724;2023-07-13T10:11:28;21.10;99.90
3488;DHT22;38546;48.170;11.724;2023-07-13T10:14:21;21.30;99.90
3488;DHT22;38546;48.170;11.724;2023-07-13T10:17:19;21.70;99.90
3488;DHT22;38546;48.170;11.724;2023-07-13T10:20:20;21.80;99.90
3488;DHT22;38546;48.170;11.724;2023-07-13T10:23:15;21.80;99.90
3488;DHT22;38546;48.170;11.724;2023-07-13T10:26:15;21.70;99.90
3488;DHT22;38546;48.170;11.724;2023-07-13T10:29:11;22.00;99.90
3488;DHT22;38546;48.170;11.724;2023-07-13T10:32:09;22.20;99.90
3488;DHT22;38546;48.170;11.724;2023-07-13T10:35:00;22.50;99.90
3488;DHT22;38546;48.170;11.724;2023-07-13T10:37:57;23.10;99.90
3488;DHT22;38546;48.170;11.724;2023-07-13T10:41:11;23.60;99.90
3488;DHT22;38546;48.170;11.724;2023-07-13T10:44:13;23.90;99.90
3488;DHT22;38546;48.170;11.724;2023-07-13T10:47:11;23.80;99.80
3488;DHT22;38546;48.170;11.724;2023-07-13T10:50:04;23.70;99.90
3488;DHT22;38546;48.170;11.724;2023-07-13T10:52:55;23.60;99.70
3488;DHT22;38546;48.170;11.724;2023-07-13T10:56:35;23.60;99.90
3488;DHT22;38546;48.170;11.724;2023-07-13T10:59:27;23.90;99.70
3488;DHT22;38546;48.170;11.724;2023-07-13T11:02:26;24.10;99.20
3488;DHT22;38546;48.170;11.724;2023-07-13T11:05:28;24.10;99.10
3488;DHT22;38546;48.170;11.724;2023-07-13T11:08:33;24.10;99.90
3488;DHT22;38546;48.170;11.724;2023-07-13T11:11:36;24.20;99.50
3488;DHT22;38546;48.170;11.724;2023-07-13T11:14:37;24.60;98.40
3488;DHT22;38546;48.170;11.724;2023-07-13T11:17:37;24.40;98.10
3488;DHT22;38546;48.170;11.724;2023-07-13T11:20:41;23.90;98.10
3488;DHT22;38546;48.170;11.724;2023-07-13T11:23:31;23.90;99.10
3488;DHT22;38546;48.170;11.724;2023-07-13T11:33:14;23.90;99.90
3488;DHT22;38546;48.170;11.724;2023-07-13T11:36:13;24.10;99.20
3488;DHT22;38546;48.170;11.724;2023-07-13T11:39:28;24.70;99.90
3488;DHT22;38546;48.170;11.724;2023-07-13T11:42:23;24.80;95.20
3488;DHT22;38546;48.170;11.724;2023-07-13T11:45:21;24.50;96.50
3488;DHT22;38546;48.170;11.724;2023-07-13T11:48:26;24.50;95.80
3488;DHT22;38546;48.170;11.724;2023-07-13T11:51:23;24.60;96.80
3488;DHT22;38546;48.170;11.724;2023-07-13T11:54:32;24.90;96.30
3488;DHT22;38546;48.170;11.724;2023-07-13T11:57:55;24.90;96.20
3488;DHT22;38546;48.170;11.724;2023-07-13T12:00:47;25.00;96.00
3488;DHT22;38546;48.170;11.724;2023-07-13T12:03:40;25.70;96.60
3488;DHT22;38546;48.170;11.724;2023-07-13T12:06:34;26.40;94.80
3488;DHT22;38546;48.170;11.724;2023-07-13T12:09:31;26.50;94.30
3488;DHT22;38546;48.170;11.724;2023-07-13T12:12:22;26.20;92.60
3488;DHT22;38546;48.170;11.724;2023-07-13T12:15:13;26.10;92.60
3488;DHT22;38546;48.170;11.724;2023-07-13T12:18:02;26.10;92.60
3488;DHT22;38546;48.170;11.724;2023-07-13T12:20:58;25.80;92.40
3488;DHT22;38546;48.170;11.724;2023-07-13T12:23:49;26.00;94.50
3488;DHT22;38546;48.170;11.724;2023-07-13T12:26:39;26.10;92.90
3488;DHT22;38546;48.170;11.724;2023-07-13T12:29:28;25.90;94.60
3488;DHT22;38546;48.170;11.724;2023-07-13T12:32:18;26.10;93.30
3488;DHT22;38546;48.170;11.724;2023-07-13T12:35:16;26.00;94.20
3488;DHT22;38546;48.170;11.724;2023-07-13T12:38:09;25.70;94.70
3488;DHT22;38546;48.170;11.724;2023-07-13T12:41:01;25.40;94.20
3488;DHT22;38546;48.170;11.724;2023-07-13T12:43:52;25.40;93.60
3488;DHT22;38546;48.170;11.724;2023-07-13T12:46:53;25.30;94.50
3488;DHT22;38546;48.170;11.724;2023-07-13T12:49:59;25.30;95.40
3488;DHT22;38546;48.170;11.724;2023-07-13T12:52:56;25.50;94.60
3488;DHT22;38546;48.170;11.724;2023-07-13T12:55:55;25.20;94.60
3488;DHT22;38546;48.170;11.724;2023-07-13T12:58:50;25.00;95.70
3488;DHT22;38546;48.170;11.724;2023-07-13T13:01:46;25.00;95.30
3488;DHT22;38546;48.170;11.724;2023-07-13T13:04:39;24.90;95.50
3488;DHT22;38546;48.170;11.724;2023-07-13T13:07:29;24.90;95.20
3488;DHT22;38546;48.170;11.724;2023-07-13T13:10:18;24.90;96.50
3488;DHT22;38546;48.170;11.724;2023-07-13T13:13:10;24.70;95.80
3488;DHT22;38546;48.170;11.724;2023-07-13T13:16:22;24.60;95.60
3488;DHT22;38546;48.170;11.724;2023-07-13T13:19:28;24.40;96.60
3488;DHT22;38546;48.170;11.724;2023-07-13T13:22:17;24.90;96.70
3488;DHT22;38546;48.170;11.724;2023-07-13T13:25:13;25.00;95.90
3488;DHT22;38546;48.170;11.724;2023-07-13T13:28:03;25.00;96.00
3488;DHT22;38546;48.170;11.724;2023-07-13T13:30:53;24.90;94.80
3488;DHT22;38546;48.170;11.724;2023-07-13T13:33:44;24.90;94.50
3488;DHT22;38546;48.170;11.724;2023-07-13T13:36:34;25.20;94.50
3488;DHT22;38546;48.170;11.724;2023-07-13T13:39:35;25.10;93.90
3488;DHT22;38546;48.170;11.724;2023-07-13T13:42:25;25.10;93.60
3488;DHT22;38546;48.170;11.724;2023-07-13T13:45:16;25.10;93.90
3488;DHT22;38546;48.170;11.724;2023-07-13T13:48:17;25.50;92.90
3488;DHT22;38546;48.170;11.724;2023-07-13T13:51:17;25.20;92.90
3488;DHT22;38546;48.170;11.724;2023-07-13T13:54:13;25.40;92.90
3488;DHT22;38546;48.170;11.724;2023-07-13T13:57:05;25.10;92.90
3488;DHT22;38546;48.170;11.724;2023-07-13T13:59:55;24.70;92.90
3488;DHT22;38546;48.170;11.724;2023-07-13T14:02:47;24.90;93.90
3488;DHT22;38546;48.170;11.724;2023-07-13T14:05:38;24.90;93.10
3488;DHT22;38546;48.170;11.724;2023-07-13T14:08:29;24.80;93.10
3488;DHT22;38546;48.170;11.724;2023-07-13T14:11:20;24.70;92.80
3488;DHT22;38546;48.170;11.724;2023-07-13T14:14:22;24.70;92.90
3488;DHT22;38546;48.170;11.724;2023-07-13T14:17:24;24.70;93.00
3488;DHT22;38546;48.170;11.724;2023-07-13T14:20:16;24.80;93.00
3488;DHT22;38546;48.170;11.724;2023-07-13T14:23:06;24.80;94.40
3488;DHT22;38546;48.170;11.724;2023-07-13T14:25:55;25.30;92.60
3488;DHT22;38546;48.170;11.724;2023-07-13T14:28:50;25.50;92.90
3488;DHT22;38546;48.170;11.724;2023-07-13T14:31:42;25.70;93.40
3488;DHT22;38546;48.170;11.724;2023-07-13T14:34:32;25.80;93.00
3488;DHT22;38546;48.170;11.724;2023-07-13T14:37:21;25.90;92.60
3488;DHT22;38546;48.170;11.724;2023-07-13T14:40:16;25.70;92.70
3488;DHT22;38546;48.170;11.724;2023-07-13T14:43:15;25.60;92.20
3488;DHT22;38546;48.170;11.724;2023-07-13T14:46:07;25.50;92.30
3488;DHT22;38546;48.170;11.724;2023-07-13T14:49:23;25.20;93.00
3488;DHT22;38546;48.170;11.724;2023-07-13T14:52:18;25.20;93.10
3488;DHT22;38546;48.170;11.724;2023-07-13T14:55:14;25.20;93.00
3488;DHT22;38546;48.170;11.724;2023-07-13T14:58:06;25.50;93.30
3488;DHT22;38546;48.170;11.724;2023-07-13T15:00:55;25.60;93.00
3488;DHT22;38546;48.170;11.724;2023-07-13T15:03:48;25.30;92.80
3488;DHT22;38546;48.170;11.724;2023-07-13T15:07:01;25.40;92.70
3488;DHT22;38546;48.170;11.724;2023-07-13T15:09:51;25.20;93.00
3488;DHT22;38546;48.170;11.724;2023-07-13T15:12:40;25.00;93.60
3488;DHT22;38546;48.170;11.724;2023-07-13T15:15:32;24.90;93.70
3488;DHT22;38546;48.170;11.724;2023-07-13T15:18:23;24.80;94.40
3488;DHT22;38546;48.170;11.724;2023-07-13T15:21:22;24.90;93.50
3488;DHT22;38546;48.170;11.724;2023-07-13T15:24:13;25.00;93.10
3488;DHT22;38546;48.170;11.724;2023-07-13T15:27:02;25.10;92.80
3488;DHT22;38546;48.170;11.724;2023-07-13T15:29:51;24.80;92.80
3488;DHT22;38546;48.170;11.724;2023-07-13T15:32:43;24.60;93.00
3488;DHT22;38546;48.170;11.724;2023-07-13T15:35:33;24.60;93.30
3488;DHT22;38546;48.170;11.724;2023-07-13T15:38:30;24.50;93.70
3488;DHT22;38546;48.170;11.724;2023-07-13T15:41:23;24.80;94.20
3488;DHT22;38546;48.170;11.724;2023-07-13T15:44:32;24.90;94.10
3488;DHT22;38546;48.170;11.724;2023-07-13T15:47:21;25.10;92.60
3488;DHT22;38546;48.170;11.724;2023-07-13T15:50:14;25.00;93.10
3488;DHT22;38546;48.170;11.724;2023-07-13T15:53:07;24.90;93.20
3488;DHT22;38546;48.170;11.724;2023-07-13T15:55:58;24.80;93.10
3488;DHT22;38546;48.170;11.724;2023-07-13T15:58:48;24.50;93.50
3488;DHT22;38546;48.170;11.724;2023-07-13T16:01:38;24.40;94.60
3488;DHT22;38546;48.170;11.724;2023-07-13T16:04:29;24.50;94.10
3488;DHT22;38546;48.170;11.724;2023-07-13T16:07:18;24.60;93.80
3488;DHT22;38546;48.170;11.724;2023-07-13T16:10:12;24.70;93.70
3488;DHT22;38546;48.170;11.724;2023-07-13T16:13:05;24.60;93.50
3488;DHT22;38546;48.170;11.724;2023-07-13T16:15:58;24.70;93.40
3488;DHT22;38546;48.170;11.724;2023-07-13T16:18:48;24.70;93.50
3488;DHT22;38546;48.170;11.724;2023-07-13T16:21:47;24.60;94.10
3488;DHT22;38546;48.170;11.724;2023-07-13T16:24:38;24.90;93.30
3488;DHT22;38546;48.170;11.724;2023-07-13T16:27:27;24.90;93.20
3488;DHT22;38546;48.170;11.724;2023-07-13T16:30:24;24.70;92.80
3488;DHT22;38546;48.170;11.724;2023-07-13T16:33:18;24.50;93.50
3488;DHT22;38546;48.170;11.724;2023-07-13T16:36:11;24.30;93.50
3488;DHT22;38546;48.170;11.724;2023-07-13T16:39:00;24.20;93.70
3488;DHT22;38546;48.170;11.724;2023-07-13T16:41:54;24.10;93.90
3488;DHT22;38546;48.170;11.724;2023-07-13T16:44:44;23.90;93.80
3488;DHT22;38546;48.170;11.724;2023-07-13T16:47:33;23.80;94.70
3488;DHT22;38546;48.170;11.724;2023-07-13T16:50:25;24.00;94.10
3488;DHT22;38546;48.170;11.724;2023-07-13T16:53:20;24.10;94.40
3488;DHT22;38546;48.170;11.724;2023-07-13T16:56:16;24.10;94.40
3488;DHT22;38546;48.170;11.724;2023-07-13T16:59:16;24.30;94.10
3488;DHT22;38546;48.170;11.724;2023-07-13T17:02:36;24.30;94.20
3488;DHT22;38546;48.170;11.724;2023-07-13T17:05:28;24.20;94.30
3488;DHT22;38546;48.170;11.724;2023-07-13T17:08:23;24.30;94.10
3488;DHT22;38546;48.170;11.724;2023-07-13T17:11:14;24.40;93.90
3488;DHT22;38546;48.170;11.724;2023-07-13T17:14:16;24.30;93.90
3488;DHT22;38546;48.170;11.724;2023-07-13T17:17:32;24.30;94.00
3488;DHT22;38546;48.170;11.724;2023-07-13T17:20:36;24.30;93.80
3488;DHT22;38546;48.170;11.724;2023-07-13T17:23:31;24.30;93.70
3488;DHT22;38546;48.170;11.724;2023-07-13T17:26:23;24.20;94.20
3488;DHT22;38546;48.170;11.724;2023-07-13T17:29:13;24.30;94.00
3488;DHT22;38546;48.170;11.724;2023-07-13T17:32:04;24.10;94.20
3488;DHT22;38546;48.170;11.724;2023-07-13T17:34:54;24.00;93.90
3488;DHT22;38546;48.170;11.724;2023-07-13T17:37:43;23.80;94.20
3488;DHT22;38546;48.170;11.724;2023-07-13T17:40:32;23.70;94.30
3488;DHT22;38546;48.170;11.724;2023-07-13T17:43:22;23.60;94.50
3488;DHT22;38546;48.170;11.724;2023-07-13T17:49:26;23.40;94.10
3488;DHT22;38546;48.170;11.724;2023-07-13T17:52:20;23.50;94.40
3488;DHT22;38546;48.170;11.724;2023-07-13T17:55:14;23.40;94.40
3488;DHT22;38546;48.170;11.724;2023-07-13T17:58:04;23.50;94.40
3488;DHT22;38546;48.170;11.724;2023-07-13T18:00:53;23.50;94.40
3488;DHT22;38546;48.170;11.724;2023-07-13T18:03:45;23.40;94.60
3488;DHT22;38546;48.170;11.724;2023-07-13T18:06:40;23.50;94.60
3488;DHT22;38546;48.170;11.724;2023-07-13T18:09:32;23.50;94.50
3488;DHT22;38546;48.170;11.724;2023-07-13T18:12:21;23.50;94.50
3488;DHT22;38546;48.170;11.724;2023-07-13T18:15:10;23.50;94.50
3488;DHT22;38546;48.170;11.724;2023-07-13T18:18:00;23.50;94.60
3488;DHT22;38546;48.170;11.724;2023-07-13T18:20:49;23.50;94.70
3488;DHT22;38546;48.170;11.724;2023-07-13T18:23:38;23.40;95.20
3488;DHT22;38546;48.170;11.724;2023-07-13T18:26:28;23.30;95.00
3488;DHT22;38546;48.170;11.724;2023-07-13T18:29:17;23.30;95.20
3488;DHT22;38546;48.170;11.724;2023-07-13T18:32:15;23.20;95.30